createdAt,value
2022-12-23T00:03:59.389Z,4.90
2022-12-23T00:09:01.909Z,4.90
2022-12-23T00:14:22.838Z,4.80
2022-12-23T00:19:25.267Z,5.10
2022-12-23T00:24:27.757Z,7.10
2022-12-23T00:29:30.321Z,7.30
2022-12-23T00:34:32.866Z,6.30
2022-12-23T00:39:55.075Z,5.90
2022-12-23T00:45:15.805Z,5.70
2022-12-23T00:50:18.653Z,5.50
2022-12-23T00:55:21.516Z,5.30
2022-12-23T01:00:44.348Z,5.30
2022-12-23T01:05:46.926Z,5.20
2022-12-23T01:10:49.509Z,5.10
2022-12-23T01:15:52.190Z,5.10
2022-12-23T01:20:55.860Z,5.00
2022-12-23T01:25:59.847Z,4.90
2022-12-23T01:31:03.715Z,4.90
2022-12-23T01:36:08.473Z,5.00
2022-12-23T01:41:55.876Z,5.00
2022-12-23T01:46:58.434Z,5.00
2022-12-23T01:52:00.911Z,5.10
2022-12-23T01:57:03.750Z,5.10
2022-12-23T02:02:25.292Z,5.40
2022-12-23T02:07:47.204Z,5.70
2022-12-23T02:13:02.719Z,5.90
2022-12-23T02:18:23.044Z,6.40
2022-12-23T02:23:44.491Z,6.80
2022-12-23T02:29:05.416Z,6.80
2022-12-23T02:34:14.171Z,8.20
2022-12-23T02:39:31.259Z,7.70
2022-12-23T02:44:49.017Z,6.80
2022-12-23T02:49:55.920Z,6.40
2022-12-23T02:55:05.653Z,6.10
2022-12-23T03:00:09.014Z,5.90
2022-12-23T03:05:27.967Z,5.80
2022-12-23T03:10:45.757Z,5.80
2022-12-23T03:16:06.808Z,5.70
2022-12-23T03:21:22.111Z,5.60
2022-12-23T03:26:39.087Z,5.50
2022-12-23T03:31:44.315Z,5.50
2022-12-23T03:36:54.658Z,5.50
2022-12-23T03:42:04.096Z,5.40
2022-12-23T03:47:12.675Z,5.50
2022-12-23T03:52:22.523Z,5.60
2022-12-23T03:57:45.386Z,5.80
2022-12-23T04:03:10.001Z,5.60
2022-12-23T04:08:15.975Z,5.50
2022-12-23T04:13:18.589Z,5.50
2022-12-23T04:18:21.112Z,5.50
2022-12-23T04:23:23.629Z,5.50
2022-12-23T04:28:26.103Z,5.40
2022-12-23T04:33:28.633Z,5.40
2022-12-23T04:38:31.052Z,5.40
2022-12-23T04:43:33.536Z,5.40
2022-12-23T04:48:36.156Z,5.40
2022-12-23T04:53:39.249Z,5.40
2022-12-23T04:58:41.796Z,5.30
2022-12-23T05:03:44.318Z,5.30
2022-12-23T05:08:46.904Z,5.20
2022-12-23T05:13:49.380Z,5.20
2022-12-23T05:18:52.028Z,5.20
2022-12-23T05:23:54.792Z,5.20
2022-12-23T05:28:57.654Z,5.30
2022-12-23T05:34:05.977Z,5.30
2022-12-23T05:39:09.749Z,5.20
2022-12-23T05:44:12.206Z,5.30
2022-12-23T05:49:14.989Z,5.40
2022-12-23T05:54:17.502Z,5.40
2022-12-23T05:59:20.047Z,5.40
2022-12-23T06:04:22.603Z,5.30
2022-12-23T06:09:25.130Z,5.30
2022-12-23T06:14:29.268Z,5.30
2022-12-23T06:19:32.222Z,5.20
2022-12-23T06:24:34.799Z,5.10
2022-12-23T06:29:37.334Z,5.10
2022-12-23T06:34:39.784Z,5.10
2022-12-23T06:39:42.169Z,5.30
2022-12-23T06:44:44.987Z,5.50
2022-12-23T06:49:47.485Z,5.30
2022-12-23T06:54:49.944Z,5.30
2022-12-23T06:59:52.439Z,5.20
2022-12-23T07:04:54.935Z,5.30
2022-12-23T07:09:57.538Z,5.10
2022-12-23T07:15:00.173Z,5.20
2022-12-23T07:20:03.245Z,5.60
2022-12-23T07:25:06.223Z,5.60
2022-12-23T07:30:09.341Z,6.50
2022-12-23T07:35:11.770Z,7.10
2022-12-23T07:40:14.937Z,6.80
2022-12-23T07:45:17.491Z,6.80
2022-12-23T07:50:20.138Z,7.10
2022-12-23T07:55:22.951Z,7.20
2022-12-23T08:00:25.623Z,7.40
2022-12-23T08:05:28.270Z,7.80
2022-12-23T08:10:30.840Z,7.60
2022-12-23T08:15:33.402Z,6.80
2022-12-23T08:20:35.917Z,6.50
2022-12-23T08:25:38.533Z,6.50
2022-12-23T08:30:41.106Z,6.50
2022-12-23T08:35:43.683Z,6.60
2022-12-23T08:40:46.160Z,6.60
2022-12-23T08:45:48.809Z,7.10
2022-12-23T08:50:51.324Z,7.50
2022-12-23T08:55:53.940Z,6.70
2022-12-23T09:00:56.567Z,6.30
2022-12-23T09:05:59.587Z,6.10
2022-12-23T09:11:02.576Z,6.80
2022-12-23T09:16:05.790Z,6.90
2022-12-23T09:21:13.844Z,6.70
2022-12-23T09:26:23.004Z,6.90
2022-12-23T09:31:32.350Z,6.70
2022-12-23T09:36:38.548Z,6.50
2022-12-23T09:41:50.330Z,6.70
2022-12-23T09:46:57.453Z,7.20
2022-12-23T09:52:03.796Z,7.80
2022-12-23T09:57:57.633Z,8.40
2022-12-23T10:03:12.215Z,8.70
2022-12-23T10:08:51.432Z,9.20
2022-12-23T10:14:15.745Z,9.20
2022-12-23T10:19:32.032Z,10.00
2022-12-23T10:24:41.459Z,10.30
2022-12-23T10:29:44.065Z,10.60
2022-12-23T10:35:06.926Z,10.80
2022-12-23T10:40:35.132Z,10.60
2022-12-23T10:46:02.711Z,10.90
2022-12-23T10:51:14.822Z,11.00
2022-12-23T10:56:18.607Z,11.40
2022-12-23T11:01:27.034Z,12.10
2022-12-23T11:06:37.085Z,12.30
2022-12-23T11:12:01.272Z,12.00
2022-12-23T11:17:06.165Z,12.10
2022-12-23T11:22:24.872Z,12.50
2022-12-23T11:27:27.363Z,12.40
2022-12-23T11:32:30.398Z,12.40
2022-12-23T11:37:37.933Z,12.40
2022-12-23T11:42:41.745Z,12.40
2022-12-23T11:47:44.461Z,12.20
2022-12-23T11:52:52.418Z,11.90
2022-12-23T11:57:56.060Z,12.00
2022-12-23T12:03:03.439Z,11.50
2022-12-23T12:08:13.863Z,11.30
2022-12-23T12:13:22.846Z,10.70
2022-12-23T12:18:26.661Z,10.00
2022-12-23T12:23:34.116Z,9.90
2022-12-23T12:28:43.309Z,9.50
2022-12-23T12:34:03.639Z,9.80
2022-12-23T12:39:29.360Z,10.10
2022-12-23T12:44:52.046Z,10.40
2022-12-23T12:50:25.222Z,10.40
2022-12-23T12:55:36.938Z,10.50
2022-12-23T13:00:59.620Z,10.90
2022-12-23T13:06:14.360Z,10.60
2022-12-23T13:11:46.612Z,10.00
2022-12-23T13:17:17.777Z,10.10
2022-12-23T13:22:35.555Z,10.80
2022-12-23T13:27:57.988Z,10.40
2022-12-23T13:33:32.297Z,10.10
2022-12-23T13:38:54.725Z,10.20
2022-12-23T13:44:00.481Z,9.80
2022-12-23T13:49:28.546Z,9.10
2022-12-23T13:55:02.084Z,8.80
2022-12-23T14:00:19.597Z,8.80
2022-12-23T14:05:45.271Z,8.90
2022-12-23T14:11:19.901Z,8.60
2022-12-23T14:16:37.578Z,8.60
2022-12-23T14:21:58.821Z,8.60
2022-12-23T14:27:30.891Z,8.60
2022-12-23T14:32:57.495Z,8.40
2022-12-23T14:38:15.455Z,8.40
2022-12-23T14:43:31.147Z,8.10
2022-12-23T14:48:33.644Z,8.30
2022-12-23T14:53:59.462Z,9.10
2022-12-23T14:59:07.760Z,10.10
2022-12-23T15:04:19.462Z,10.20
2022-12-23T15:09:26.445Z,10.20
2022-12-23T15:14:39.504Z,10.30
2022-12-23T15:19:47.338Z,10.10
2022-12-23T15:24:50.064Z,9.20
2022-12-23T15:29:54.093Z,8.60
2022-12-23T15:35:03.602Z,9.40
2022-12-23T15:40:13.129Z,9.60
2022-12-23T15:45:31.155Z,9.30
2022-12-23T15:50:41.693Z,8.80
2022-12-23T15:55:45.431Z,8.70
2022-12-23T16:00:57.727Z,8.80
2022-12-23T16:06:16.975Z,7.90
2022-12-23T16:11:21.188Z,7.50
2022-12-23T16:16:41.002Z,7.30
2022-12-23T16:21:43.506Z,7.20
2022-12-23T16:26:46.166Z,7.00
2022-12-23T16:31:55.833Z,7.10
2022-12-23T16:37:01.868Z,7.10
2022-12-23T16:42:04.777Z,7.10
2022-12-23T16:47:15.333Z,7.30
2022-12-23T16:52:24.527Z,7.70
2022-12-23T16:57:27.046Z,8.10
2022-12-23T17:02:30.138Z,8.60
2022-12-23T17:07:32.577Z,8.80
2022-12-23T17:12:35.546Z,9.40
2022-12-23T17:17:38.728Z,9.60
2022-12-23T17:22:44.982Z,9.80
2022-12-23T17:27:52.079Z,9.80
2022-12-23T17:32:57.878Z,9.00
2022-12-23T17:38:01.122Z,8.00
2022-12-23T17:43:03.707Z,8.30
2022-12-23T17:48:06.501Z,8.30
2022-12-23T17:53:14.779Z,8.80
2022-12-23T17:58:17.248Z,9.60
2022-12-23T18:03:23.881Z,10.00
2022-12-23T18:08:26.366Z,9.90
2022-12-23T18:13:28.905Z,9.80
2022-12-23T18:18:43.808Z,9.60
2022-12-23T18:23:48.593Z,8.10
2022-12-23T18:28:51.525Z,7.30
2022-12-23T18:33:54.026Z,7.00
2022-12-23T18:38:57.292Z,7.00
2022-12-23T18:43:59.832Z,6.80
2022-12-23T18:49:02.337Z,6.90
2022-12-23T18:54:04.907Z,6.70
2022-12-23T18:59:27.508Z,6.60
2022-12-23T19:04:32.151Z,6.40
2022-12-23T19:09:34.685Z,6.60
2022-12-23T19:14:39.252Z,6.40
2022-12-23T19:19:41.852Z,6.30
2022-12-23T19:25:03.819Z,6.60
2022-12-23T19:30:09.710Z,6.20
2022-12-23T19:35:15.597Z,6.00
2022-12-23T19:40:18.452Z,6.90
2022-12-23T19:45:20.964Z,6.50
2022-12-23T19:50:23.678Z,6.30
2022-12-23T19:55:26.186Z,6.10
2022-12-23T20:00:28.753Z,6.10
2022-12-23T20:05:31.193Z,6.10
2022-12-23T20:10:33.755Z,6.10
2022-12-23T20:15:36.351Z,6.20
2022-12-23T20:20:38.982Z,6.40
2022-12-23T20:25:41.380Z,5.80
2022-12-23T20:30:44.064Z,5.30
2022-12-23T20:35:46.729Z,4.90
2022-12-23T20:40:49.178Z,4.80
2022-12-23T20:45:52.391Z,4.70
2022-12-23T20:50:55.044Z,4.60
2022-12-23T20:56:05.238Z,4.60
2022-12-23T21:01:09.704Z,4.60
2022-12-23T21:06:12.374Z,4.50
2022-12-23T21:11:15.821Z,4.40
2022-12-23T21:16:18.727Z,4.40
2022-12-23T21:21:26.694Z,4.40
2022-12-23T21:26:30.760Z,4.40
2022-12-23T21:31:35.552Z,4.30
2022-12-23T21:36:39.504Z,4.30
2022-12-23T21:41:42.630Z,4.30
2022-12-23T21:46:45.365Z,4.20
2022-12-23T21:51:47.909Z,4.20
2022-12-23T21:56:50.454Z,4.20
2022-12-23T22:01:53.049Z,4.20
2022-12-23T22:06:55.544Z,4.20
2022-12-23T22:11:58.218Z,4.30
2022-12-23T22:17:00.781Z,4.30
2022-12-23T22:22:03.254Z,4.30
2022-12-23T22:27:05.734Z,4.20
2022-12-23T22:32:08.313Z,4.20
2022-12-23T22:37:10.808Z,4.20
2022-12-23T22:42:13.532Z,4.30
2022-12-23T22:47:16.039Z,5.00
2022-12-23T22:52:18.525Z,5.00
2022-12-23T22:57:20.953Z,5.00
2022-12-23T23:02:25.427Z,5.60
2022-12-23T23:07:28.060Z,5.60
2022-12-23T23:12:30.469Z,5.50
2022-12-23T23:17:33.503Z,6.70
2022-12-23T23:22:36.054Z,6.40
2022-12-23T23:27:41.886Z,6.50
2022-12-23T23:32:44.390Z,7.10
2022-12-23T23:37:46.891Z,7.30
2022-12-23T23:42:49.480Z,7.80
2022-12-23T23:47:51.924Z,7.90
2022-12-23T23:52:54.454Z,7.40
2022-12-23T23:57:57.514Z,7.10
